createdAt,value
2018-02-11T00:01:19.074Z,15.30
2018-02-11T00:03:47.934Z,14.47
2018-02-11T00:06:16.815Z,15.33
2018-02-11T00:08:45.678Z,16.80
2018-02-11T00:11:14.558Z,16.13
2018-02-11T00:13:43.410Z,15.10
2018-02-11T00:16:12.286Z,14.27
2018-02-11T00:18:41.138Z,15.93
2018-02-11T00:21:10.009Z,17.20
2018-02-11T00:23:38.866Z,15.53
2018-02-11T00:26:07.763Z,14.47
2018-02-11T00:28:36.614Z,14.63
2018-02-11T00:31:05.466Z,16.50
2018-02-11T00:33:34.348Z,15.53
2018-02-11T00:36:03.223Z,16.33
2018-02-11T00:38:32.106Z,15.10
2018-02-11T00:41:00.958Z,18.63
2018-02-11T00:43:29.835Z,15.83
2018-02-11T00:45:58.694Z,15.40
2018-02-11T00:48:27.570Z,17.17
2018-02-11T00:50:56.437Z,16.87
2018-02-11T00:53:25.306Z,15.90
2018-02-11T00:55:54.161Z,15.33
2018-02-11T00:58:23.047Z,16.37
2018-02-11T01:00:51.907Z,18.77
2018-02-11T01:03:20.774Z,15.93
2018-02-11T01:05:49.630Z,16.83
2018-02-11T01:08:18.510Z,18.10
2018-02-11T01:10:47.376Z,19.00
2018-02-11T01:13:16.258Z,17.57
2018-02-11T01:15:45.120Z,16.20
2018-02-11T01:18:14.012Z,15.30
2018-02-11T01:20:42.875Z,16.60
2018-02-11T01:23:11.732Z,17.27
2018-02-11T01:25:40.618Z,16.97
2018-02-11T01:28:09.466Z,16.13
2018-02-11T01:30:38.359Z,19.90
2018-02-11T01:33:07.229Z,17.73
2018-02-11T01:35:36.128Z,15.67
2018-02-11T01:38:04.983Z,17.30
2018-02-11T01:40:33.864Z,16.47
2018-02-11T01:43:02.718Z,17.03
2018-02-11T01:45:31.590Z,17.50
2018-02-11T01:48:00.445Z,17.33
2018-02-11T01:50:29.323Z,16.57
2018-02-11T01:52:58.178Z,19.13
2018-02-11T01:55:27.047Z,16.07
2018-02-11T01:57:55.906Z,16.97
2018-02-11T02:00:24.779Z,17.23
2018-02-11T02:02:53.646Z,17.10
2018-02-11T02:05:22.524Z,15.40
2018-02-11T02:07:51.383Z,18.10
2018-02-11T02:10:20.259Z,17.47
2018-02-11T02:12:49.121Z,17.40
2018-02-11T02:15:17.998Z,17.60
2018-02-11T02:17:46.851Z,15.30
2018-02-11T02:20:15.762Z,16.50
2018-02-11T02:22:44.618Z,17.20
2018-02-11T02:25:13.483Z,15.97
2018-02-11T02:27:42.362Z,17.40
2018-02-11T02:30:11.222Z,16.50
2018-02-11T02:32:40.105Z,14.73
2018-02-11T02:35:09.004Z,16.63
2018-02-11T02:37:37.874Z,16.00
2018-02-11T02:40:06.730Z,16.10
2018-02-11T02:42:35.606Z,15.50
2018-02-11T02:45:04.466Z,15.03
2018-02-11T02:47:33.338Z,14.80
2018-02-11T02:50:02.204Z,17.77
2018-02-11T02:52:31.078Z,15.80
2018-02-11T02:54:59.934Z,14.20
2018-02-11T02:57:28.813Z,15.63
2018-02-11T02:59:57.671Z,14.70
2018-02-11T03:02:26.549Z,13.57
2018-02-11T03:04:55.427Z,14.50
2018-02-11T03:07:24.300Z,14.60
2018-02-11T03:09:53.165Z,15.73
2018-02-11T03:12:22.043Z,14.60
2018-02-11T03:14:50.896Z,16.40
2018-02-11T03:17:19.763Z,13.30
2018-02-11T03:19:48.782Z,17.77
2018-02-11T03:22:17.639Z,14.30
2018-02-11T03:24:46.520Z,14.13
2018-02-11T03:27:15.378Z,14.50
2018-02-11T03:29:44.255Z,15.07
2018-02-11T03:32:13.115Z,16.67
2018-02-11T03:34:41.991Z,14.90
2018-02-11T03:37:10.865Z,14.10
2018-02-11T03:39:39.742Z,13.90
2018-02-11T03:42:08.607Z,14.47
2018-02-11T03:44:37.483Z,14.07
2018-02-11T03:47:06.334Z,15.17
2018-02-11T03:49:35.212Z,15.10
2018-02-11T03:52:04.067Z,13.90
2018-02-11T03:54:32.948Z,14.47
2018-02-11T03:57:01.812Z,12.80
2018-02-11T03:59:30.696Z,16.43
2018-02-11T04:01:59.559Z,13.80
2018-02-11T04:04:28.539Z,13.57
2018-02-11T04:06:57.400Z,14.90
2018-02-11T04:09:26.268Z,15.00
2018-02-11T04:11:55.148Z,14.33
2018-02-11T04:14:24.016Z,13.23
2018-02-11T04:16:52.887Z,13.17
2018-02-11T04:19:21.742Z,15.03
2018-02-11T04:21:50.631Z,12.37
2018-02-11T04:24:19.486Z,12.63
2018-02-11T04:26:48.372Z,13.97
2018-02-11T04:29:17.226Z,13.50
2018-02-11T04:31:46.102Z,12.43
2018-02-11T04:34:14.964Z,11.40
2018-02-11T04:36:43.838Z,12.00
2018-02-11T04:39:12.700Z,11.57
2018-02-11T04:41:41.680Z,12.57
2018-02-11T04:44:10.538Z,12.47
2018-02-11T04:46:39.413Z,12.17
2018-02-11T04:49:08.315Z,13.47
2018-02-11T04:51:37.162Z,10.40
2018-02-11T04:54:06.039Z,13.03
2018-02-11T04:56:34.904Z,11.60
2018-02-11T04:59:03.778Z,12.03
2018-02-11T05:01:32.646Z,10.37
2018-02-11T05:04:01.519Z,12.73
2018-02-11T05:06:30.385Z,13.57
2018-02-11T05:08:59.284Z,12.10
2018-02-11T05:11:28.146Z,11.70
2018-02-11T05:13:57.028Z,12.13
2018-02-11T05:16:25.892Z,14.70
2018-02-11T05:18:54.879Z,12.73
2018-02-11T05:21:23.743Z,11.40
2018-02-11T05:23:52.603Z,12.77
2018-02-11T05:26:21.478Z,12.23
2018-02-11T05:28:50.338Z,12.47
2018-02-11T05:31:19.206Z,13.57
2018-02-11T05:33:48.074Z,12.43
2018-02-11T05:36:16.957Z,11.13
2018-02-11T05:38:45.809Z,11.30
2018-02-11T05:41:14.684Z,10.60
2018-02-11T05:43:43.538Z,11.80
2018-02-11T05:46:12.407Z,11.83
2018-02-11T05:48:41.262Z,10.17
2018-02-11T05:51:10.144Z,10.37
2018-02-11T05:53:38.994Z,10.30
2018-02-11T05:56:07.863Z,10.70
2018-02-11T05:58:36.711Z,9.60
2018-02-11T06:01:05.585Z,11.47
2018-02-11T06:03:34.442Z,11.30
2018-02-11T06:06:03.323Z,11.27
2018-02-11T06:08:32.178Z,12.60
2018-02-11T06:11:01.050Z,11.03
2018-02-11T06:13:29.902Z,9.80
2018-02-11T06:15:58.770Z,10.80
2018-02-11T06:18:27.634Z,12.00
2018-02-11T06:20:56.508Z,8.90
2018-02-11T06:23:25.362Z,10.63
2018-02-11T06:25:54.228Z,10.10
2018-02-11T06:28:23.075Z,10.13
2018-02-11T06:30:51.933Z,10.10
2018-02-11T06:33:20.816Z,8.93
2018-02-11T06:35:49.680Z,10.83
2018-02-11T06:38:18.561Z,9.63
2018-02-11T06:40:47.424Z,9.73
2018-02-11T06:43:16.292Z,9.43
2018-02-11T06:45:45.142Z,10.63
2018-02-11T06:48:14.006Z,10.30
2018-02-11T06:50:42.862Z,11.93
2018-02-11T06:53:11.738Z,10.33
2018-02-11T06:55:40.587Z,11.03
2018-02-11T06:58:09.454Z,9.67
2018-02-11T07:00:38.303Z,9.97
2018-02-11T07:03:07.174Z,10.90
2018-02-11T07:05:36.036Z,11.23
2018-02-11T07:08:04.915Z,11.37
2018-02-11T07:10:33.776Z,9.60
2018-02-11T07:13:02.642Z,9.50
2018-02-11T07:15:31.494Z,9.63
2018-02-11T07:18:00.384Z,9.97
2018-02-11T07:20:31.127Z,9.57
2018-02-11T07:23:00.004Z,10.47
2018-02-11T07:25:28.999Z,10.57
2018-02-11T07:27:57.854Z,9.70
2018-02-11T07:30:26.726Z,9.87
2018-02-11T07:32:55.581Z,9.70
2018-02-11T07:35:24.442Z,9.87
2018-02-11T07:37:53.290Z,9.73
2018-02-11T07:40:22.165Z,8.70
2018-02-11T07:42:51.014Z,10.40
2018-02-11T07:45:19.884Z,9.00
2018-02-11T07:47:48.742Z,10.57
2018-02-11T07:50:17.619Z,9.23
2018-02-11T07:52:46.486Z,10.40
2018-02-11T07:55:15.350Z,9.23
2018-02-11T07:57:44.213Z,9.20
2018-02-11T08:00:13.104Z,9.87
2018-02-11T08:02:41.966Z,8.53
2018-02-11T08:05:10.828Z,9.30
2018-02-11T08:07:39.698Z,8.57
2018-02-11T08:10:08.557Z,8.47
2018-02-11T08:12:37.421Z,8.27
2018-02-11T08:15:06.284Z,8.90
2018-02-11T08:17:35.160Z,7.17
2018-02-11T08:20:04.018Z,7.97
2018-02-11T08:22:33.200Z,7.47
2018-02-11T08:25:02.086Z,7.97
2018-02-11T08:27:30.951Z,8.03
2018-02-11T08:29:59.815Z,7.97
2018-02-11T08:32:28.686Z,8.43
2018-02-11T08:34:57.551Z,7.70
2018-02-11T08:37:26.782Z,7.70
2018-02-11T08:39:55.626Z,7.83
2018-02-11T08:42:24.578Z,7.77
2018-02-11T08:44:53.448Z,6.97
2018-02-11T08:47:22.350Z,7.03
2018-02-11T08:49:51.210Z,8.33
2018-02-11T08:52:20.059Z,7.67
2018-02-11T08:54:48.922Z,7.57
2018-02-11T08:57:17.783Z,6.87
2018-02-11T08:59:46.666Z,6.63
2018-02-11T09:02:15.527Z,7.17
2018-02-11T09:04:44.409Z,7.23
2018-02-11T09:07:13.272Z,7.03
2018-02-11T09:09:40.790Z,6.37
2018-02-11T09:12:09.666Z,6.33
2018-02-11T09:14:38.547Z,6.63
2018-02-11T09:17:06.059Z,7.10
2018-02-11T09:19:33.584Z,6.47
2018-02-11T09:22:02.439Z,5.53
2018-02-11T09:24:29.992Z,5.50
2018-02-11T09:26:58.847Z,5.57
2018-02-11T09:29:26.363Z,6.50
2018-02-11T09:31:55.231Z,5.70
2018-02-11T09:34:24.109Z,4.83
2018-02-11T09:36:52.983Z,5.77
2018-02-11T09:39:21.880Z,4.57
2018-02-11T09:41:49.431Z,5.07
2018-02-11T09:44:16.944Z,5.37
2018-02-11T09:46:45.806Z,5.37
2018-02-11T09:49:14.666Z,5.43
2018-02-11T09:51:42.970Z,5.07
2018-02-11T09:54:11.823Z,4.30
2018-02-11T09:56:40.107Z,5.10
2018-02-11T09:59:08.388Z,5.00
2018-02-11T10:01:36.718Z,4.73
2018-02-11T10:04:04.223Z,4.93
2018-02-11T10:06:32.494Z,4.93
2018-02-11T10:09:00.792Z,4.50
2018-02-11T10:11:28.306Z,5.70
2018-02-11T10:13:55.829Z,4.07
2018-02-11T10:16:23.339Z,3.83
2018-02-11T10:18:50.882Z,3.97
2018-02-11T10:21:18.387Z,4.10
2018-02-11T10:23:45.910Z,4.67
2018-02-11T10:26:13.419Z,4.63
2018-02-11T10:28:40.952Z,4.60
2018-02-11T10:31:08.475Z,4.10
2018-02-11T10:33:36.009Z,3.97
2018-02-11T10:36:03.524Z,4.80
2018-02-11T10:38:31.836Z,3.97
2018-02-11T10:40:59.343Z,3.87
2018-02-11T10:43:26.847Z,3.80
2018-02-11T10:45:54.401Z,3.93
2018-02-11T10:48:21.915Z,3.47
2018-02-11T10:50:49.442Z,3.13
2018-02-11T10:53:16.965Z,3.30
2018-02-11T10:55:45.255Z,3.30
2018-02-11T10:58:13.523Z,3.57
2018-02-11T11:00:41.811Z,3.23
2018-02-11T11:03:10.078Z,3.53
2018-02-11T11:05:38.359Z,4.13
2018-02-11T11:08:06.631Z,4.03
2018-02-11T11:10:34.918Z,3.53
2018-02-11T11:13:03.199Z,3.20
2018-02-11T11:15:30.723Z,4.37
2018-02-11T11:17:58.240Z,3.03
2018-02-11T11:20:25.800Z,3.03
2018-02-11T11:22:53.306Z,4.10
2018-02-11T11:25:20.822Z,2.80
2018-02-11T11:27:48.348Z,2.63
2018-02-11T11:30:16.622Z,3.10
2018-02-11T11:32:44.907Z,3.00
2018-02-11T11:35:13.187Z,2.27
2018-02-11T11:37:41.493Z,2.77
2018-02-11T11:40:08.998Z,3.27
2018-02-11T11:42:36.525Z,2.90
2018-02-11T11:45:04.043Z,6.83
2018-02-11T11:47:32.331Z,2.90
2018-02-11T11:49:59.855Z,2.57
2018-02-11T11:52:27.407Z,3.37
2018-02-11T11:54:54.917Z,2.70
2018-02-11T11:57:22.439Z,3.50
2018-02-11T11:59:49.947Z,2.77
2018-02-11T12:02:17.486Z,3.30
2018-02-11T12:04:45.751Z,2.47
2018-02-11T12:07:14.074Z,2.40
2018-02-11T12:09:41.584Z,2.80
2018-02-11T12:12:09.872Z,2.47
2018-02-11T12:14:38.159Z,2.67
2018-02-11T12:17:05.676Z,2.07
2018-02-11T12:19:33.203Z,2.87
2018-02-11T12:22:00.710Z,2.27
2018-02-11T12:24:28.237Z,2.50
2018-02-11T12:26:55.749Z,1.90
2018-02-11T12:31:52.138Z,2.00
2018-02-11T12:34:19.691Z,2.30
2018-02-11T12:36:47.199Z,2.00
2018-02-11T12:39:14.721Z,3.03
2018-02-11T12:41:42.241Z,2.40
2018-02-11T12:44:10.548Z,2.37
2018-02-11T12:46:38.062Z,2.60
2018-02-11T12:49:05.564Z,2.20
2018-02-11T12:51:33.092Z,2.43
2018-02-11T12:54:01.372Z,2.40
2018-02-11T12:56:29.665Z,2.10
2018-02-11T12:58:57.185Z,1.77
2018-02-11T13:01:24.699Z,2.00
2018-02-11T13:03:52.226Z,2.30
2018-02-11T13:06:20.524Z,2.40
2018-02-11T13:08:48.031Z,2.00
2018-02-11T13:11:15.559Z,1.60
2018-02-11T13:13:43.080Z,2.50
2018-02-11T13:16:11.375Z,2.30
2018-02-11T13:18:38.890Z,3.00
2018-02-11T13:21:06.412Z,2.40
2018-02-11T13:23:33.918Z,2.27
2018-02-11T13:26:01.460Z,2.17
2018-02-11T13:28:28.980Z,2.40
2018-02-11T13:30:56.497Z,2.30
2018-02-11T13:33:24.023Z,2.10
2018-02-11T13:35:51.532Z,1.87
2018-02-11T13:38:19.831Z,2.17
2018-02-11T13:40:47.348Z,2.20
2018-02-11T13:43:14.881Z,2.80
2018-02-11T13:45:42.387Z,2.40
2018-02-11T13:48:10.683Z,2.53
2018-02-11T13:50:38.953Z,2.80
2018-02-11T13:53:07.247Z,2.50
2018-02-11T13:55:34.754Z,2.40
2018-02-11T13:58:02.276Z,2.10
2018-02-11T14:00:29.779Z,2.50
2018-02-11T14:02:57.328Z,2.70
2018-02-11T14:07:58.754Z,2.90
2018-02-11T14:10:26.268Z,2.90
2018-02-11T14:12:53.783Z,2.60
2018-02-11T14:15:21.300Z,2.80
2018-02-11T14:17:48.816Z,2.63
2018-02-11T14:20:16.343Z,2.43
2018-02-11T14:22:44.634Z,2.17
2018-02-11T14:25:12.173Z,2.93
2018-02-11T14:27:40.454Z,2.40
2018-02-11T14:30:08.738Z,2.27
2018-02-11T14:32:37.008Z,2.30
2018-02-11T14:35:05.312Z,3.00
2018-02-11T14:37:32.823Z,3.17
2018-02-11T14:40:00.353Z,2.43
2018-02-11T14:42:27.868Z,3.10
2018-02-11T14:44:56.156Z,2.53
2018-02-11T14:47:23.693Z,2.93
2018-02-11T14:49:51.212Z,2.70
2018-02-11T14:52:18.722Z,2.40
2018-02-11T14:54:47.006Z,3.30
2018-02-11T14:57:15.288Z,2.93
2018-02-11T14:59:42.802Z,2.90
2018-02-11T15:02:10.327Z,3.80
2018-02-11T15:04:37.835Z,2.73
2018-02-11T15:07:05.365Z,2.13
2018-02-11T15:09:32.875Z,2.60
2018-02-11T15:12:01.168Z,2.50
2018-02-11T15:14:28.716Z,2.67
2018-02-11T15:16:57.009Z,2.47
2018-02-11T15:19:24.518Z,3.07
2018-02-11T15:21:52.047Z,3.20
2018-02-11T15:24:19.551Z,2.47
2018-02-11T15:26:47.074Z,3.00
2018-02-11T15:29:14.583Z,3.37
2018-02-11T15:31:42.878Z,3.03
2018-02-11T15:34:10.386Z,2.90
2018-02-11T15:36:37.910Z,2.80
2018-02-11T15:39:05.431Z,2.83
2018-02-11T15:41:32.950Z,2.90
2018-02-11T15:44:00.488Z,2.87
2018-02-11T15:46:27.995Z,3.20
2018-02-11T15:48:55.537Z,3.30
2018-02-11T15:51:23.048Z,5.30
2018-02-11T15:53:50.585Z,2.60
2018-02-11T15:56:18.092Z,2.60
2018-02-11T15:58:45.616Z,3.20
2018-02-11T16:01:13.887Z,2.73
2018-02-11T16:03:41.421Z,3.47
2018-02-11T16:06:08.956Z,3.17
2018-02-11T16:08:36.475Z,2.90
2018-02-11T16:11:04.747Z,3.30
2018-02-11T16:13:32.264Z,2.93
2018-02-11T16:15:59.763Z,3.97
2018-02-11T16:18:27.288Z,4.10
2018-02-11T16:20:54.791Z,3.13
2018-02-11T16:23:23.118Z,4.00
2018-02-11T16:25:50.619Z,2.70
2018-02-11T16:28:18.122Z,3.03
2018-02-11T16:30:45.647Z,3.63
2018-02-11T16:33:13.919Z,3.40
2018-02-11T16:35:41.447Z,3.30
2018-02-11T16:38:08.960Z,3.00
2018-02-11T16:40:37.256Z,3.33
2018-02-11T16:43:04.759Z,3.47
2018-02-11T16:45:32.296Z,3.40
2018-02-11T16:47:59.807Z,3.27
2018-02-11T16:50:28.104Z,3.43
2018-02-11T16:52:55.615Z,3.40
2018-02-11T16:55:23.138Z,3.77
2018-02-11T16:57:50.651Z,3.67
2018-02-11T17:00:18.176Z,3.60
2018-02-11T17:02:45.686Z,3.73
2018-02-11T17:05:13.965Z,4.03
2018-02-11T17:07:42.251Z,4.00
2018-02-11T17:10:10.522Z,3.90
2018-02-11T17:12:38.876Z,3.80
2018-02-11T17:15:06.390Z,3.63
2018-02-11T17:17:33.936Z,4.03
2018-02-11T17:20:01.449Z,3.37
2018-02-11T17:22:28.970Z,3.70
2018-02-11T17:24:56.474Z,3.97
2018-02-11T17:27:24.000Z,3.60
2018-02-11T17:29:51.524Z,3.27
2018-02-11T17:32:19.063Z,3.17
2018-02-11T17:34:46.568Z,3.80
2018-02-11T17:37:14.105Z,3.90
2018-02-11T17:39:42.383Z,3.90
2018-02-11T17:42:09.919Z,4.47
2018-02-11T17:44:37.429Z,3.93
2018-02-11T17:47:04.930Z,3.90
2018-02-11T17:49:32.456Z,3.90
2018-02-11T17:51:59.969Z,3.90
2018-02-11T17:54:28.246Z,4.03
2018-02-11T17:56:56.527Z,3.63
2018-02-11T17:59:24.818Z,3.90
2018-02-11T18:01:52.332Z,4.03
2018-02-11T18:04:19.856Z,3.43
2018-02-11T18:06:47.359Z,4.60
2018-02-11T18:09:14.887Z,3.20
2018-02-11T18:11:42.397Z,3.40
2018-02-11T18:14:10.688Z,4.10
2018-02-11T18:16:38.201Z,3.50
2018-02-11T18:19:05.731Z,4.13
2018-02-11T18:21:33.251Z,4.40
2018-02-11T18:24:01.614Z,3.73
2018-02-11T18:26:29.215Z,4.20
2018-02-11T18:28:56.744Z,3.87
2018-02-11T18:31:24.257Z,4.03
2018-02-11T18:33:51.808Z,4.27
2018-02-11T18:36:19.311Z,4.33
2018-02-11T18:38:46.819Z,4.60
2018-02-11T18:41:14.375Z,4.30
2018-02-11T18:43:41.903Z,4.53
2018-02-11T18:46:09.424Z,4.60
2018-02-11T18:48:36.935Z,4.03
2018-02-11T18:51:05.965Z,4.40
2018-02-11T18:53:34.834Z,3.60
2018-02-11T18:56:03.712Z,3.63
2018-02-11T18:58:32.007Z,4.33
2018-02-11T19:01:00.890Z,3.70
2018-02-11T19:03:29.766Z,4.87
2018-02-11T19:05:58.657Z,4.03
2018-02-11T19:08:27.515Z,4.60
2018-02-11T19:10:56.816Z,4.77
2018-02-11T19:13:25.663Z,4.20
2018-02-11T19:15:54.560Z,4.33
2018-02-11T19:18:23.418Z,4.60
2018-02-11T19:20:52.366Z,4.87
2018-02-11T19:23:21.236Z,3.60
2018-02-11T19:25:50.107Z,4.30
2018-02-11T19:28:18.974Z,4.10
2018-02-11T19:30:47.851Z,4.50
2018-02-11T19:33:16.703Z,3.70
2018-02-11T19:35:45.578Z,4.30
2018-02-11T19:38:14.447Z,4.53
2018-02-11T19:40:43.340Z,4.33
2018-02-11T19:43:12.189Z,4.47
2018-02-11T19:45:41.076Z,5.67
2018-02-11T19:48:09.953Z,3.93
2018-02-11T19:50:38.798Z,4.67
2018-02-11T19:53:07.671Z,4.63
2018-02-11T19:55:36.531Z,4.90
2018-02-11T19:58:05.399Z,4.30
2018-02-11T20:00:34.251Z,4.80
2018-02-11T20:03:03.143Z,4.43
2018-02-11T20:05:32.007Z,4.20
2018-02-11T20:08:00.882Z,4.07
2018-02-11T20:10:29.755Z,3.87
2018-02-11T20:12:58.626Z,4.40
2018-02-11T20:15:27.474Z,4.50
2018-02-11T20:17:56.342Z,3.70
2018-02-11T20:20:25.194Z,5.10
2018-02-11T20:22:54.090Z,4.60
2018-02-11T20:25:22.949Z,4.50
2018-02-11T20:27:51.800Z,3.93
2018-02-11T20:30:20.684Z,3.83
2018-02-11T20:32:49.531Z,3.53
2018-02-11T20:35:18.428Z,4.50
2018-02-11T20:37:47.290Z,4.67
2018-02-11T20:40:16.171Z,3.77
2018-02-11T20:42:45.022Z,4.37
2018-02-11T20:45:13.895Z,4.37
2018-02-11T20:47:42.746Z,3.93
2018-02-11T20:50:11.610Z,4.83
2018-02-11T20:52:40.458Z,4.47
2018-02-11T20:55:09.328Z,4.07
2018-02-11T20:57:38.178Z,4.37
2018-02-11T21:00:07.070Z,4.53
2018-02-11T21:02:35.914Z,3.87
2018-02-11T21:05:04.768Z,4.50
2018-02-11T21:07:33.634Z,4.13
2018-02-11T21:10:02.502Z,3.60
2018-02-11T21:12:31.407Z,4.27
2018-02-11T21:15:00.243Z,4.70
2018-02-11T21:17:29.111Z,4.80
2018-02-11T21:19:57.959Z,4.30
2018-02-11T21:22:26.836Z,4.37
2018-02-11T21:24:55.683Z,4.13
2018-02-11T21:27:24.556Z,4.07
2018-02-11T21:29:53.405Z,3.90
2018-02-11T21:32:22.268Z,4.30
2018-02-11T21:34:51.132Z,3.80
2018-02-11T21:37:20.011Z,4.37
2018-02-11T21:39:48.864Z,4.40
2018-02-11T21:42:17.730Z,5.43
2018-02-11T21:44:46.582Z,4.63
2018-02-11T21:47:15.456Z,4.97
2018-02-11T21:49:44.307Z,4.33
2018-02-11T21:52:13.186Z,3.70
2018-02-11T21:54:42.034Z,4.63
2018-02-11T21:57:10.917Z,5.50
2018-02-11T21:59:39.791Z,5.50
2018-02-11T22:02:08.661Z,5.70
2018-02-11T22:04:37.523Z,4.40
2018-02-11T22:07:06.384Z,5.40
2018-02-11T22:09:35.249Z,5.03
2018-02-11T22:12:04.108Z,4.97
2018-02-11T22:14:32.974Z,5.43
2018-02-11T22:17:01.826Z,5.07
2018-02-11T22:19:30.694Z,4.90
2018-02-11T22:21:59.555Z,5.57
2018-02-11T22:24:28.425Z,5.20
2018-02-11T22:26:57.284Z,5.43
2018-02-11T22:29:26.146Z,5.70
2018-02-11T22:31:55.005Z,6.23
2018-02-11T22:34:23.874Z,6.03
2018-02-11T22:36:52.732Z,5.67
2018-02-11T22:39:21.613Z,6.10
2018-02-11T22:41:50.471Z,5.83
2018-02-11T22:44:19.348Z,5.77
2018-02-11T22:46:48.424Z,6.97
2018-02-11T22:49:17.324Z,6.10
2018-02-11T22:51:46.178Z,5.50
2018-02-11T22:54:15.103Z,6.47
2018-02-11T22:56:43.974Z,6.47
2018-02-11T22:59:12.834Z,6.73
2018-02-11T23:01:41.698Z,6.97
2018-02-11T23:04:10.553Z,5.37
2018-02-11T23:06:39.433Z,6.30
2018-02-11T23:09:08.288Z,6.90
2018-02-11T23:11:37.149Z,6.63
2018-02-11T23:14:06.016Z,5.20
2018-02-11T23:16:34.896Z,6.83
2018-02-11T23:19:03.746Z,6.23
2018-02-11T23:21:32.606Z,7.73
2018-02-11T23:24:01.481Z,6.53
2018-02-11T23:26:30.360Z,5.83
2018-02-11T23:28:59.206Z,6.83
2018-02-11T23:31:28.068Z,6.93
2018-02-11T23:33:56.919Z,6.07
2018-02-11T23:36:25.796Z,5.43
2018-02-11T23:38:54.645Z,6.57
2018-02-11T23:41:23.511Z,6.60
2018-02-11T23:43:52.359Z,5.80
2018-02-11T23:46:21.212Z,6.03
2018-02-11T23:48:50.083Z,4.87
2018-02-11T23:51:18.941Z,6.33
2018-02-11T23:53:47.812Z,6.60
2018-02-11T23:56:16.667Z,6.53
2018-02-11T23:58:45.547Z,5.87
